Time;durP1;ratioP1;P1;durP2;ratioP2;P2;SDS_P1;SDS_P2;PMS_P1;PMS_P2;Temp;Humidity;BMP_temperature;BMP_pressure;BME280_temperature;BME280_humidity;BME280_pressure;Samples;Min_cycle;Max_cycle;Signal;HPM_P1;HPM_P2
2023/01/28 00:00:06;;;;;;;4.95;3.72;;;7.00;79.70;;;;;;5077007;28;20035;-81
2023/01/28 00:02:34;;;;;;;4.72;3.78;;;7.00;79.70;;;;;;5094428;28;20044;-79
2023/01/28 00:04:59;;;;;;;5.05;4.05;;;7.00;79.70;;;;;;5060374;28;20093;-79
2023/01/28 00:07:25;;;;;;;5.47;3.63;;;7.00;79.70;;;;;;5094184;28;20028;-80
2023/01/28 00:09:51;;;;;;;4.30;3.55;;;7.00;79.70;;;;;;5095237;28;20421;-80
2023/01/28 00:12:17;;;;;;;5.60;4.20;;;7.00;79.60;;;;;;5060432;28;20028;-80
2023/01/28 00:14:45;;;;;;;5.32;4.00;;;7.00;79.60;;;;;;5061458;28;20067;-80
2023/01/28 00:17:11;;;;;;;5.10;3.78;;;7.00;79.60;;;;;;5093845;28;20461;-81
2023/01/28 00:19:37;;;;;;;5.57;4.00;;;7.00;79.60;;;;;;5093781;28;20035;-80
2023/01/28 00:22:03;;;;;;;4.43;3.40;;;7.00;79.70;;;;;;5077785;28;20035;-80
2023/01/28 00:24:29;;;;;;;4.97;3.78;;;7.00;79.70;;;;;;5094955;28;20036;-80
2023/01/28 00:26:55;;;;;;;4.18;3.47;;;7.00;79.60;;;;;;5076403;28;20039;-79
2023/01/28 00:29:21;;;;;;;4.95;3.67;;;7.00;79.70;;;;;;5076991;28;20024;-80
2023/01/28 00:31:46;;;;;;;5.00;3.80;;;7.00;79.70;;;;;;5060390;28;20384;-79
2023/01/28 00:34:12;;;;;;;4.68;3.42;;;7.00;79.70;;;;;;5060800;28;20480;-80
2023/01/28 00:36:41;;;;;;;5.07;3.90;;;7.00;79.70;;;;;;5060576;28;20552;-80
2023/01/28 00:39:10;;;;;;;5.43;4.30;;;6.90;79.70;;;;;;5076922;28;20030;-80
2023/01/28 00:41:36;;;;;;;5.07;3.85;;;6.90;79.70;;;;;;5076991;28;20032;-81
2023/01/28 00:44:02;;;;;;;4.72;3.50;;;6.90;79.70;;;;;;5076860;28;20111;-80
2023/01/28 00:46:28;;;;;;;4.28;3.65;;;6.90;79.70;;;;;;5060133;28;20432;-80
2023/01/28 00:48:55;;;;;;;4.97;3.75;;;6.90;79.70;;;;;;5077013;28;20089;-80
2023/01/28 00:51:21;;;;;;;5.22;4.32;;;6.90;79.70;;;;;;5076226;28;20032;-81
2023/01/28 00:53:48;;;;;;;5.10;4.07;;;6.90;79.70;;;;;;5077298;28;20064;-80
2023/01/28 00:56:16;;;;;;;4.85;3.92;;;6.90;79.70;;;;;;5076511;28;20032;-78
2023/01/28 00:58:43;;;;;;;4.82;3.88;;;6.90;79.80;;;;;;5076645;28;20121;-80
2023/01/28 01:01:14;;;;;;;4.82;3.90;;;6.90;79.80;;;;;;5076538;28;20138;-79
2023/01/28 01:03:41;;;;;;;4.68;3.70;;;6.90;79.80;;;;;;5059918;28;20085;-80
2023/01/28 01:06:08;;;;;;;5.72;4.03;;;6.90;79.80;;;;;;5059895;28;20077;-79
2023/01/28 01:08:34;;;;;;;4.88;3.90;;;6.90;79.80;;;;;;5076405;28;20032;-79
2023/01/28 01:11:01;;;;;;;5.15;3.75;;;6.80;79.70;;;;;;5059602;28;20050;-78
2023/01/28 01:13:27;;;;;;;4.53;3.40;;;6.90;79.80;;;;;;5075960;28;20027;-80
2023/01/28 01:16:17;;;;;;;4.88;3.85;;;6.90;79.80;;;;;;5059724;28;20039;-79
2023/01/28 01:18:43;;;;;;;4.65;3.50;;;6.90;79.80;;;;;;5094101;28;20103;-80
2023/01/28 01:21:18;;;;;;;5.35;4.00;;;6.80;79.70;;;;;;5076138;28;20035;-79
2023/01/28 01:23:45;;;;;;;4.80;3.97;;;6.80;79.80;;;;;;5076172;28;20069;-80
2023/01/28 01:26:11;;;;;;;5.13;3.83;;;6.80;79.70;;;;;;5094135;28;20106;-80
2023/01/28 01:28:37;;;;;;;5.38;4.05;;;6.80;79.70;;;;;;5076346;28;20054;-80
2023/01/28 01:31:06;;;;;;;5.03;3.72;;;6.80;79.70;;;;;;5059440;28;20028;-80
2023/01/28 01:33:32;;;;;;;5.45;4.40;;;6.80;79.80;;;;;;5076227;28;20054;-81
2023/01/28 01:35:58;;;;;;;5.00;3.90;;;6.80;79.70;;;;;;5059935;28;20049;-81
2023/01/28 01:38:26;;;;;;;5.20;3.95;;;6.80;79.70;;;;;;5076360;28;20020;-81
2023/01/28 01:40:57;;;;;;;5.57;4.15;;;6.80;79.80;;;;;;5059765;28;20074;-80
2023/01/28 01:43:22;;;;;;;5.40;4.15;;;6.80;79.80;;;;;;5076072;28;20063;-81
2023/01/28 01:45:59;;;;;;;5.78;4.03;;;6.80;79.80;;;;;;5094213;28;20039;-81
2023/01/28 01:48:31;;;;;;;5.20;3.67;;;6.80;79.80;;;;;;5076858;28;20043;-81
2023/01/28 01:50:59;;;;;;;5.18;4.03;;;6.80;79.80;;;;;;5076298;28;20031;-80
2023/01/28 01:53:27;;;;;;;5.07;4.00;;;6.80;79.80;;;;;;5075995;28;20035;-81
2023/01/28 01:55:57;;;;;;;5.50;4.20;;;6.70;79.80;;;;;;5076465;28;20035;-79
2023/01/28 01:58:27;;;;;;;5.80;4.28;;;6.70;79.80;;;;;;5076331;28;20032;-81
2023/01/28 02:00:53;;;;;;;4.60;3.70;;;6.70;79.80;;;;;;5075987;28;20055;-80
2023/01/28 02:03:27;;;;;;;5.50;4.35;;;6.70;79.80;;;;;;5075873;28;20081;-80
2023/01/28 02:05:53;;;;;;;5.57;4.20;;;6.70;79.90;;;;;;5097563;28;20380;-81
2023/01/28 02:08:22;;;;;;;4.80;3.78;;;6.70;79.80;;;;;;5097520;28;20024;-81
2023/01/28 02:10:53;;;;;;;5.35;4.03;;;6.70;79.90;;;;;;5063530;28;20449;-80
2023/01/28 02:13:23;;;;;;;4.95;3.65;;;6.70;79.90;;;;;;5079498;28;20032;-79
2023/01/28 02:15:49;;;;;;;6.10;4.15;;;6.70;79.90;;;;;;5079757;28;20024;-80
2023/01/28 02:18:15;;;;;;;4.65;3.65;;;6.70;79.90;;;;;;5096441;28;20033;-80
2023/01/28 02:21:02;;;;;;;4.03;3.13;;;6.70;79.90;;;;;;5097790;28;20047;-80
2023/01/28 02:23:40;;;;;;;4.80;3.63;;;6.70;79.90;;;;;;5097759;28;20031;-81
2023/01/28 02:26:41;;;;;;;5.70;4.18;;;6.70;79.90;;;;;;5079038;28;20031;-80
2023/01/28 02:29:13;;;;;;;4.95;3.55;;;6.70;79.90;;;;;;5079740;28;20345;-82
2023/01/28 02:31:56;;;;;;;5.25;4.15;;;6.60;79.80;;;;;;5062365;28;20035;-80
2023/01/28 02:34:45;;;;;;;5.05;3.83;;;6.60;79.90;;;;;;5078505;28;20036;-81
2023/01/28 02:37:22;;;;;;;5.25;3.95;;;6.60;79.90;;;;;;5097105;28;20465;-80
2023/01/28 02:39:52;;;;;;;4.47;3.58;;;6.60;79.90;;;;;;5078854;28;20092;-80
2023/01/28 02:42:24;;;;;;;5.00;3.83;;;6.60;79.90;;;;;;5078491;28;20161;-79
2023/01/28 02:44:49;;;;;;;5.22;3.83;;;6.60;79.80;;;;;;5079502;28;20071;-80
2023/01/28 02:50:10;;;;;;;5.57;4.10;;;6.60;79.80;;;;;;5079694;28;20024;-80
2023/01/28 02:55:48;;;;;;;5.07;4.13;;;6.60;79.80;;;;;;5078720;28;20032;-80
2023/01/28 02:58:53;;;;;;;5.78;3.90;;;6.60;79.80;;;;;;5078489;28;20181;-81
2023/01/28 03:01:25;;;;;;;5.45;4.07;;;6.60;79.80;;;;;;5057970;28;20415;-79
2023/01/28 03:03:58;;;;;;;5.97;4.32;;;6.60;79.80;;;;;;5096363;28;20028;-80
2023/01/28 03:06:38;;;;;;;5.95;4.30;;;6.60;79.80;;;;;;5078368;28;20115;-81
2023/01/28 03:09:23;;;;;;;5.88;4.35;;;6.60;79.80;;;;;;5079250;28;20027;-80
2023/01/28 03:37:25;;;;;;;;;;;6.50;79.80;;;;;;5078552;28;20059;-80
2023/01/28 03:40:12;;;;;;;5.32;3.83;;;6.40;79.70;;;;;;5080829;28;20356;-80
2023/01/28 03:42:37;;;;;;;5.78;4.20;;;6.40;79.60;;;;;;5077967;28;20388;-80
2023/01/28 03:45:10;;;;;;;5.90;4.43;;;6.40;79.70;;;;;;5078198;28;20032;-80
2023/01/28 03:47:39;;;;;;;6.53;4.38;;;6.40;79.80;;;;;;5078025;28;20038;-81
2023/01/28 03:50:06;;;;;;;5.88;4.30;;;6.40;79.80;;;;;;5077747;28;20150;-80
2023/01/28 03:52:38;;;;;;;5.82;4.32;;;6.50;79.90;;;;;;5077936;28;20035;-81
2023/01/28 03:55:22;;;;;;;6.30;4.60;;;6.40;79.80;;;;;;5077912;28;20032;-80
2023/01/28 03:57:48;;;;;;;5.45;4.35;;;6.40;79.80;;;;;;5078092;28;20032;-80
2023/01/28 04:00:16;;;;;;;6.18;4.50;;;6.40;79.80;;;;;;5078362;28;20024;-81
2023/01/28 04:02:42;;;;;;;6.28;4.75;;;6.40;79.80;;;;;;5061293;28;20028;-80
2023/01/28 04:05:14;;;;;;;6.75;4.85;;;6.40;79.80;;;;;;5061787;28;20532;-80
2023/01/28 04:07:46;;;;;;;6.80;5.00;;;6.40;79.80;;;;;;5077112;28;20071;-80
2023/01/28 04:10:30;;;;;;;6.72;4.95;;;6.40;79.80;;;;;;5080047;28;20047;-80
2023/01/28 04:13:07;;;;;;;5.80;4.40;;;6.40;79.80;;;;;;5077892;28;20060;-81
2023/01/28 04:15:34;;;;;;;6.78;4.80;;;6.40;79.80;;;;;;5077094;28;20047;-80
2023/01/28 04:18:00;;;;;;;6.55;4.80;;;6.40;79.80;;;;;;5077841;28;20032;-81
2023/01/28 04:20:29;;;;;;;6.85;5.35;;;6.40;79.80;;;;;;5077072;28;20385;-80
2023/01/28 04:22:57;;;;;;;6.60;4.85;;;6.40;79.80;;;;;;5077171;28;20457;-81
2023/01/28 04:25:23;;;;;;;6.72;4.72;;;6.40;79.80;;;;;;5060477;28;20032;-81
2023/01/28 04:27:49;;;;;;;6.63;5.22;;;6.40;79.80;;;;;;5076126;28;20036;-81
2023/01/28 04:30:23;;;;;;;6.90;5.30;;;6.40;79.80;;;;;;5077135;28;20064;-80
2023/01/28 04:33:05;;;;;;;6.50;4.97;;;6.40;79.80;;;;;;5062662;28;20413;-80
2023/01/28 04:36:06;;;;;;;6.13;4.45;;;6.40;79.80;;;;;;5012923;28;20085;-81
2023/01/28 04:38:41;;;;;;;6.35;5.03;;;6.40;79.70;;;;;;5068392;28;20097;-81
2023/01/28 04:41:23;;;;;;;6.68;4.78;;;6.30;79.70;;;;;;5079356;28;20028;-81
2023/01/28 04:43:49;;;;;;;6.75;4.82;;;6.40;79.80;;;;;;5076599;28;20040;-79
2023/01/28 04:46:43;;;;;;;6.18;4.75;;;6.30;79.70;;;;;;5040107;28;20120;-80
2023/01/28 04:49:20;;;;;;;6.90;5.35;;;6.30;79.70;;;;;;5061580;28;20036;-79
2023/01/28 04:52:18;;;;;;;6.40;4.93;;;6.30;79.70;;;;;;5085536;28;20040;-80
2023/01/28 04:55:05;;;;;;;6.47;4.93;;;6.30;79.70;;;;;;5092685;28;20072;-81
2023/01/28 04:57:31;;;;;;;5.85;4.45;;;6.30;79.70;;;;;;5077198;28;20434;-80
2023/01/28 04:59:57;;;;;;;5.93;4.38;;;6.30;79.80;;;;;;5093376;28;20052;-80
2023/01/28 05:02:23;;;;;;;6.05;4.85;;;6.30;79.80;;;;;;5076385;28;20058;-81
2023/01/28 05:04:49;;;;;;;6.90;5.07;;;6.20;79.70;;;;;;5059697;28;20032;-81
2023/01/28 05:07:35;;;;;;;6.75;4.88;;;6.30;79.80;;;;;;5092491;28;20036;-81
2023/01/28 05:10:02;;;;;;;7.60;4.93;;;6.20;79.80;;;;;;5076579;28;20039;-81
2023/01/28 05:12:31;;;;;;;6.30;4.75;;;6.20;79.80;;;;;;5076322;28;20031;-81
2023/01/28 05:15:00;;;;;;;6.18;4.88;;;6.20;79.80;;;;;;5060096;28;20089;-81
2023/01/28 05:17:27;;;;;;;7.32;5.38;;;6.30;79.90;;;;;;5059081;28;20072;-80
2023/01/28 05:19:52;;;;;;;6.80;5.03;;;6.20;79.80;;;;;;5076079;28;20050;-80
2023/01/28 05:22:22;;;;;;;7.15;4.97;;;6.20;79.80;;;;;;5076296;28;20024;-80
2023/01/28 05:25:04;;;;;;;6.53;5.10;;;6.20;79.80;;;;;;5077032;28;20036;-80
2023/01/28 05:27:31;;;;;;;6.75;5.03;;;6.20;79.70;;;;;;5076294;28;20488;-81
2023/01/28 05:29:57;;;;;;;6.93;5.05;;;6.20;79.70;;;;;;5076631;28;20080;-80
2023/01/28 05:32:24;;;;;;;6.03;4.70;;;6.20;79.80;;;;;;5059318;28;20036;-80
2023/01/28 05:34:49;;;;;;;6.93;5.30;;;6.20;79.70;;;;;;5058928;28;20056;-81
2023/01/28 05:37:15;;;;;;;6.63;5.18;;;6.20;79.70;;;;;;5076262;28;20144;-80
2023/01/28 05:39:41;;;;;;;6.63;4.95;;;6.20;79.70;;;;;;5079715;28;20500;-80
2023/01/28 05:42:07;;;;;;;6.15;4.70;;;6.20;79.70;;;;;;5080658;28;20098;-81
2023/01/28 05:44:36;;;;;;;6.10;4.78;;;6.20;79.70;;;;;;5064033;28;20051;-81
2023/01/28 05:47:11;;;;;;;;;;;6.20;79.80;;;;;;5065032;28;20033;-79
2023/01/28 05:49:49;;;;;;;6.07;4.47;;;6.20;79.70;;;;;;5080282;28;20038;-80
2023/01/28 05:52:41;;;;;;;5.82;4.55;;;6.20;79.70;;;;;;5060617;28;20040;-80
2023/01/28 05:55:13;;;;;;;5.75;4.47;;;6.10;79.70;;;;;;5080230;28;20350;-80
2023/01/28 05:57:39;;;;;;;6.03;4.55;;;6.10;79.70;;;;;;5079911;28;20020;-81
2023/01/28 06:00:07;;;;;;;6.75;5.10;;;6.10;79.80;;;;;;5079781;28;20056;-81
2023/01/28 06:02:41;;;;;;;6.60;4.93;;;6.10;79.80;;;;;;5097685;28;20054;-80
2023/01/28 06:05:08;;;;;;;6.40;5.03;;;6.10;79.70;;;;;;5079688;28;20422;-80
2023/01/28 06:07:34;;;;;;;6.28;4.93;;;6.10;79.70;;;;;;5079373;28;20024;-80
2023/01/28 06:10:00;;;;;;;6.68;4.97;;;6.10;79.70;;;;;;5079531;28;20078;-81
2023/01/28 06:12:26;;;;;;;6.90;5.22;;;6.10;79.80;;;;;;5062810;28;20113;-81
2023/01/28 06:15:27;;;;;;;6.57;5.15;;;6.10;79.70;;;;;;5034961;28;20034;-81
2023/01/28 06:18:15;;;;;;;6.82;5.00;;;6.10;79.70;;;;;;5057996;28;20036;-81
2023/01/28 06:20:41;;;;;;;7.00;5.03;;;6.10;79.70;;;;;;5080078;28;20028;-80
2023/01/28 06:23:07;;;;;;;7.25;5.20;;;6.10;79.80;;;;;;5063286;28;20184;-80
2023/01/28 06:25:33;;;;;;;6.75;5.07;;;6.10;79.80;;;;;;5062725;28;20044;-81
2023/01/28 06:28:05;;;;;;;6.57;4.80;;;6.00;79.70;;;;;;5063548;28;20041;-80
2023/01/28 06:30:30;;;;;;;7.30;5.20;;;6.00;79.70;;;;;;5062795;28;20036;-81
2023/01/28 06:32:56;;;;;;;6.53;5.03;;;6.00;79.70;;;;;;5079566;28;20079;-80
2023/01/28 06:35:23;;;;;;;7.65;5.65;;;6.10;79.80;;;;;;5079739;28;20056;-81
2023/01/28 06:37:49;;;;;;;7.15;5.22;;;6.00;79.70;;;;;;5096718;28;20409;-80
2023/01/28 06:40:15;;;;;;;6.95;4.80;;;6.00;79.70;;;;;;5096967;28;20030;-79
2023/01/28 06:42:41;;;;;;;6.75;4.95;;;6.00;79.70;;;;;;5078752;28;20066;-81
2023/01/28 06:45:07;;;;;;;6.70;4.88;;;6.00;79.70;;;;;;5079235;28;20036;-80
2023/01/28 06:47:33;;;;;;;7.00;5.18;;;6.00;79.80;;;;;;5095754;28;20517;-80
2023/01/28 06:49:59;;;;;;;7.05;5.25;;;6.00;79.70;;;;;;5061923;28;20024;-79
2023/01/28 06:52:24;;;;;;;6.28;4.60;;;6.00;79.70;;;;;;5079286;28;20059;-79
2023/01/28 06:54:50;;;;;;;6.72;4.97;;;6.00;79.70;;;;;;5078896;28;20381;-81
2023/01/28 06:57:16;;;;;;;6.93;4.78;;;6.00;79.70;;;;;;5062310;28;20063;-78
2023/01/28 06:59:41;;;;;;;6.82;4.88;;;6.00;79.70;;;;;;5096489;28;20124;-80
2023/01/28 07:02:10;;;;;;;7.00;5.40;;;6.00;79.70;;;;;;5079041;28;20391;-80
2023/01/28 07:04:36;;;;;;;7.00;4.90;;;6.00;79.80;;;;;;5079274;28;20024;-82
2023/01/28 07:07:02;;;;;;;7.32;5.25;;;5.90;79.70;;;;;;5078773;28;20349;-81
2023/01/28 07:09:28;;;;;;;7.20;5.57;;;5.90;79.70;;;;;;5078200;28;20085;-80
2023/01/28 07:11:53;;;;;;;7.10;5.20;;;5.90;80.30;;;;;;5061252;28;20028;-81
2023/01/28 07:14:19;;;;;;;7.97;5.65;;;5.90;79.60;;;;;;5061665;28;20036;-81
2023/01/28 07:16:45;;;;;;;7.82;5.60;;;6.00;79.70;;;;;;5078075;28;20035;-81
2023/01/28 07:19:11;;;;;;;7.80;5.38;;;6.00;79.80;;;;;;5078931;28;20518;-81
2023/01/28 07:21:36;;;;;;;8.43;6.15;;;5.90;79.70;;;;;;5078344;28;20080;-81
2023/01/28 07:24:04;;;;;;;8.10;5.75;;;5.90;79.70;;;;;;5095111;28;20039;-81
2023/01/28 07:26:30;;;;;;;7.60;5.47;;;5.90;79.80;;;;;;5078143;28;20024;-80
2023/01/28 07:28:55;;;;;;;7.80;5.80;;;5.90;79.70;;;;;;5077738;28;20624;-80
2023/01/28 07:31:21;;;;;;;7.35;5.22;;;5.90;79.70;;;;;;5061547;28;20055;-81
2023/01/28 07:33:47;;;;;;;7.05;5.43;;;5.90;79.70;;;;;;5061324;28;20093;-81
2023/01/28 07:36:13;;;;;;;7.25;5.45;;;5.90;79.70;;;;;;5077754;28;20056;-80
2023/01/28 07:38:38;;;;;;;8.25;5.72;;;5.90;79.70;;;;;;5078148;28;20068;-81
2023/01/28 07:41:05;;;;;;;7.50;5.45;;;5.90;79.70;;;;;;5078774;28;20055;-81
2023/01/28 07:43:31;;;;;;;7.43;5.68;;;5.90;79.70;;;;;;5096260;28;20093;-81
2023/01/28 07:46:00;;;;;;;7.45;5.88;;;5.90;79.70;;;;;;5077866;28;20024;-80
2023/01/28 07:48:26;;;;;;;6.82;5.18;;;5.80;79.60;;;;;;5078303;28;20036;-81
2023/01/28 07:50:52;;;;;;;7.82;6.07;;;5.80;79.60;;;;;;5078102;28;20104;-81
2023/01/28 07:53:19;;;;;;;7.30;5.15;;;5.80;79.60;;;;;;5077689;28;20460;-84
2023/01/28 07:55:45;;;;;;;6.75;5.13;;;5.80;80.30;;;;;;5077330;28;20081;-84
2023/01/28 07:58:11;;;;;;;7.78;5.65;;;5.90;79.70;;;;;;5077900;28;20405;-83
2023/01/28 08:00:37;;;;;;;7.65;5.72;;;5.80;79.70;;;;;;5077823;28;20405;-82
2023/01/28 08:03:06;;;;;;;7.35;5.72;;;5.80;79.70;;;;;;5093622;28;20475;-84
2023/01/28 08:05:45;;;;;;;8.18;6.10;;;5.80;79.70;;;;;;5095934;28;20050;-82
2023/01/28 08:08:11;;;;;;;7.25;5.63;;;5.80;79.70;;;;;;5077601;28;20028;-83
2023/01/28 08:10:37;;;;;;;7.57;5.57;;;5.80;79.70;;;;;;5077331;28;20024;-82
2023/01/28 08:13:03;;;;;;;7.80;5.57;;;5.80;79.70;;;;;;5077930;28;20042;-83
2023/01/28 08:15:29;;;;;;;8.57;6.07;;;5.80;79.70;;;;;;5077689;28;20028;-82
2023/01/28 08:17:57;;;;;;;7.35;5.45;;;5.80;79.70;;;;;;5077227;28;20020;-81
2023/01/28 08:20:26;;;;;;;7.75;5.97;;;5.80;79.70;;;;;;5095175;28;20035;-82
2023/01/28 08:22:52;;;;;;;7.50;5.50;;;5.80;79.70;;;;;;5095306;28;20052;-82
2023/01/28 08:25:18;;;;;;;8.00;6.13;;;5.70;79.60;;;;;;5076603;28;20032;-82
2023/01/28 08:27:44;;;;;;;8.48;6.35;;;5.70;79.60;;;;;;5077138;28;20060;-81
2023/01/28 08:30:10;;;;;;;8.05;5.85;;;5.70;79.70;;;;;;5060998;28;20039;-82
2023/01/28 08:32:36;;;;;;;8.07;6.07;;;5.70;79.60;;;;;;5060259;28;20051;-81
2023/01/28 08:35:03;;;;;;;8.65;6.38;;;5.70;79.70;;;;;;5094849;28;20083;-81
2023/01/28 08:37:29;;;;;;;8.25;6.38;;;5.70;79.70;;;;;;5094721;28;20031;-82
2023/01/28 08:39:54;;;;;;;8.27;6.32;;;5.70;79.70;;;;;;5060491;28;20031;-81
2023/01/28 08:42:20;;;;;;;7.70;6.13;;;5.80;79.70;;;;;;5076890;28;20034;-81
2023/01/28 08:44:47;;;;;;;8.18;5.80;;;5.70;79.60;;;;;;5093789;28;20062;-81
2023/01/28 08:47:13;;;;;;;7.43;5.60;;;5.70;79.60;;;;;;5077165;28;20146;-81
2023/01/28 08:49:39;;;;;;;8.00;6.07;;;5.70;79.60;;;;;;5059508;28;20028;-81
2023/01/28 08:52:05;;;;;;;7.50;6.00;;;5.70;79.60;;;;;;5077574;28;20518;-81
2023/01/28 08:54:32;;;;;;;8.07;6.13;;;5.70;79.60;;;;;;5059972;28;20071;-82
2023/01/28 08:56:58;;;;;;;7.50;5.88;;;5.70;79.60;;;;;;5094765;28;20052;-82
2023/01/28 08:59:23;;;;;;;7.65;5.57;;;5.70;79.60;;;;;;5076505;28;20032;-81
2023/01/28 09:01:50;;;;;;;8.10;6.15;;;5.70;79.60;;;;;;5077309;28;20582;-82
2023/01/28 09:04:16;;;;;;;8.13;6.38;;;5.70;79.60;;;;;;5094310;28;20109;-81
2023/01/28 09:06:41;;;;;;;7.97;6.03;;;5.70;79.60;;;;;;5076151;28;20036;-80
2023/01/28 09:09:07;;;;;;;7.55;5.45;;;5.70;79.60;;;;;;5076317;28;20028;-84
2023/01/28 09:11:33;;;;;;;7.65;5.72;;;5.70;79.50;;;;;;5077133;28;20024;-82
2023/01/28 09:13:59;;;;;;;8.23;6.45;;;5.70;79.60;;;;;;5076753;28;20377;-82
2023/01/28 09:16:25;;;;;;;7.65;5.78;;;5.70;79.60;;;;;;5076200;28;20465;-80
2023/01/28 09:18:52;;;;;;;7.50;5.65;;;5.70;79.60;;;;;;5076978;28;20032;-83
2023/01/28 09:21:19;;;;;;;7.53;5.70;;;5.70;79.60;;;;;;5076354;28;20091;-84
2023/01/28 09:23:45;;;;;;;6.63;5.30;;;5.70;79.60;;;;;;5094132;28;20024;-83
2023/01/28 09:26:10;;;;;;;7.75;6.22;;;5.70;79.60;;;;;;5076576;28;20062;-81
2023/01/28 09:28:37;;;;;;;7.47;5.93;;;5.70;79.60;;;;;;5075975;28;20042;-79
2023/01/28 09:31:11;;;;;;;8.88;6.53;;;5.60;79.60;;;;;;5093891;28;20500;-79
2023/01/28 09:33:38;;;;;;;7.90;5.88;;;5.70;79.60;;;;;;5075878;28;20032;-79
2023/01/28 09:36:06;;;;;;;7.65;5.95;;;5.60;79.50;;;;;;5061710;28;20084;-79
2023/01/28 09:38:33;;;;;;;7.20;5.45;;;5.60;79.50;;;;;;5035837;28;20037;-80
2023/01/28 09:41:00;;;;;;;8.20;6.35;;;5.70;79.60;;;;;;5052200;28;20082;-81
2023/01/28 09:43:32;;;;;;;7.47;5.78;;;5.70;79.60;;;;;;5036695;28;20037;-79
2023/01/28 09:46:01;;;;;;;7.32;5.70;;;5.60;79.50;;;;;;5069651;28;20040;-80
2023/01/28 09:48:40;;;;;;;7.13;5.60;;;5.70;79.60;;;;;;5036002;28;20546;-79
2023/01/28 09:51:29;;;;;;;6.90;5.20;;;5.70;79.60;;;;;;5052314;28;20036;-80
2023/01/28 09:54:01;;;;;;;6.95;5.40;;;5.60;79.50;;;;;;5043406;28;20446;-79
2023/01/28 09:56:31;;;;;;;8.10;6.63;;;5.60;79.50;;;;;;5052551;28;20040;-80
2023/01/28 09:59:25;;;;;;;6.93;5.60;;;5.60;79.50;;;;;;5052759;28;20060;-81
2023/01/28 10:02:03;;;;;;;7.45;5.30;;;5.70;79.50;;;;;;5049740;28;20071;-82
2023/01/28 10:04:31;;;;;;;6.78;5.20;;;5.70;79.50;;;;;;5035841;28;20118;-80
2023/01/28 10:07:11;;;;;;;7.40;6.07;;;5.60;79.50;;;;;;5051972;28;20079;-79
2023/01/28 10:10:00;;;;;;;6.85;5.63;;;5.70;79.60;;;;;;5052092;28;20078;-79
2023/01/28 10:12:26;;;;;;;7.38;5.85;;;5.60;79.50;;;;;;5053455;28;20098;-79
2023/01/28 10:15:03;;;;;;;6.68;5.18;;;5.60;79.50;;;;;;5051562;28;20457;-79
2023/01/28 10:17:42;;;;;;;6.90;5.28;;;5.70;79.60;;;;;;5053172;28;20032;-80
2023/01/28 10:20:11;;;;;;;6.57;5.13;;;5.70;79.60;;;;;;5052567;28;20037;-79
2023/01/28 10:22:54;;;;;;;7.78;5.97;;;5.70;79.50;;;;;;5051809;28;20025;-80
2023/01/28 10:25:25;;;;;;;7.20;5.70;;;5.70;79.60;;;;;;5052878;28;20036;-79
2023/01/28 10:27:51;;;;;;;6.85;5.47;;;5.70;79.50;;;;;;5055878;28;20029;-79
2023/01/28 10:30:21;;;;;;;6.80;5.10;;;5.70;79.60;;;;;;5039724;28;20031;-81
2023/01/28 10:32:50;;;;;;;6.38;4.88;;;5.70;79.60;;;;;;5038758;28;20025;-79
2023/01/28 10:35:16;;;;;;;6.95;5.50;;;5.70;79.50;;;;;;5063440;28;20149;-80
2023/01/28 10:37:42;;;;;;;6.82;5.35;;;5.70;79.50;;;;;;5078670;28;20461;-79
2023/01/28 10:40:17;;;;;;;6.70;5.38;;;5.80;79.60;;;;;;5078601;28;20036;-81
2023/01/28 10:42:44;;;;;;;7.50;6.05;;;5.80;79.60;;;;;;5096748;28;20107;-79
2023/01/28 10:45:29;;;;;;;7.00;5.40;;;5.80;79.60;;;;;;5097088;28;20024;-82
2023/01/28 10:48:34;;;;;;;;;;;5.80;79.60;;;;;;5097266;28;20066;-82
2023/01/28 10:51:04;;;;;;;6.18;4.72;;;5.80;79.50;;;;;;5054711;28;19908;-80
2023/01/28 10:53:38;;;;;;;6.63;5.28;;;5.80;79.30;;;;;;5038194;28;20041;-80
2023/01/28 10:56:34;;;;;;;8.80;5.28;;;5.80;79.50;;;;;;5043175;28;20035;-83
2023/01/28 10:59:17;;;;;;;6.82;5.40;;;5.90;79.60;;;;;;5078816;28;20032;-82
2023/01/28 11:01:53;;;;;;;6.63;5.03;;;5.80;79.50;;;;;;5079031;28;20028;-84
2023/01/28 11:04:28;;;;;;;7.63;5.80;;;5.90;79.60;;;;;;5078158;28;20082;-81
2023/01/28 11:06:59;;;;;;;6.18;4.97;;;5.90;79.60;;;;;;5078071;28;20456;-81
2023/01/28 11:09:30;;;;;;;6.80;5.57;;;5.90;79.60;;;;;;5078019;28;20047;-81
2023/01/28 11:11:57;;;;;;;6.45;5.10;;;5.90;79.60;;;;;;5078033;28;20016;-82
2023/01/28 11:14:25;;;;;;;8.07;5.75;;;5.90;79.60;;;;;;5096375;28;20024;-82
2023/01/28 11:16:54;;;;;;;6.53;5.43;;;5.90;79.60;;;;;;5078101;28;20028;-82
2023/01/28 11:19:26;;;;;;;6.57;5.15;;;5.90;79.60;;;;;;5077631;28;20012;-81
2023/01/28 11:21:55;;;;;;;6.60;4.55;;;6.00;79.60;;;;;;5078526;28;20055;-83
2023/01/28 11:24:32;;;;;;;6.50;4.80;;;6.00;79.60;;;;;;5077857;28;20085;-82
2023/01/28 11:27:16;;;;;;;6.72;5.07;;;6.00;79.60;;;;;;5078349;28;20469;-82
2023/01/28 11:29:42;;;;;;;6.47;4.97;;;6.00;79.60;;;;;;5077883;28;20024;-83
2023/01/28 11:32:19;;;;;;;6.10;4.45;;;6.10;79.60;;;;;;5061827;28;20035;-81
2023/01/28 11:34:53;;;;;;;6.35;4.78;;;6.10;80.30;;;;;;5078448;28;20039;-81
2023/01/28 11:37:21;;;;;;;6.25;4.72;;;6.10;79.60;;;;;;5096077;28;20036;-81
2023/01/28 11:39:48;;;;;;;6.63;5.15;;;6.10;79.60;;;;;;5095716;28;20052;-81
2023/01/28 11:42:21;;;;;;;6.50;4.75;;;6.10;79.50;;;;;;5061328;28;20390;-80
2023/01/28 11:44:48;;;;;;;6.10;4.70;;;6.10;79.60;;;;;;5077628;28;20038;-81
2023/01/28 11:47:39;;;;;;;6.40;4.75;;;6.20;79.60;;;;;;5077251;28;20119;-81
2023/01/28 11:50:24;;;;;;;6.20;4.68;;;6.20;79.60;;;;;;5078678;28;20032;-83
2023/01/28 11:53:11;;;;;;;6.60;5.10;;;6.20;79.50;;;;;;5095818;28;20046;-82
2023/01/28 11:55:57;;;;;;;5.70;4.38;;;6.20;79.50;;;;;;5077649;28;20069;-82
2023/01/28 11:58:31;;;;;;;5.40;4.35;;;6.20;79.50;;;;;;5095538;28;20024;-88
2023/01/28 12:01:12;;;;;;;6.57;4.57;;;6.20;79.50;;;;;;5061007;28;20127;-81
2023/01/28 12:03:44;;;;;;;6.47;5.05;;;6.20;79.50;;;;;;5095034;28;20122;-79
2023/01/28 12:06:13;;;;;;;6.57;5.00;;;6.30;79.50;;;;;;5095397;28;20052;-80
2023/01/28 12:09:08;;;;;;;6.45;4.88;;;6.30;79.50;;;;;;5060469;28;20020;-80
2023/01/28 12:12:12;;;;;;;6.15;4.45;;;6.30;79.60;;;;;;5077567;28;20461;-79
2023/01/28 12:14:59;;;;;;;5.88;4.53;;;6.30;79.50;;;;;;5078037;28;20043;-81
2023/01/28 12:17:40;;;;;;;6.60;5.18;;;6.30;79.50;;;;;;5095580;28;20166;-80
2023/01/28 12:20:18;;;;;;;7.00;4.90;;;6.30;79.50;;;;;;5061246;28;20036;-80
2023/01/28 12:23:14;;;;;;;6.32;5.03;;;6.30;79.50;;;;;;5077033;28;20115;-80
2023/01/28 12:25:55;;;;;;;6.80;5.20;;;6.30;79.60;;;;;;5077477;28;20028;-80
2023/01/28 12:28:29;;;;;;;7.00;5.47;;;6.30;79.60;;;;;;5060353;28;20086;-80
2023/01/28 12:31:13;;;;;;;6.47;5.18;;;6.40;79.60;;;;;;5077587;28;20136;-80
2023/01/28 12:34:01;;;;;;;5.68;4.40;;;6.40;79.70;;;;;;5077465;28;20039;-81
2023/01/28 12:36:59;;;;;;;6.40;4.97;;;6.40;79.60;;;;;;5077233;28;20069;-81
2023/01/28 12:39:58;;;;;;;6.30;4.90;;;6.40;79.60;;;;;;5060008;28;20119;-81
2023/01/28 12:42:40;;;;;;;5.97;4.55;;;6.40;79.60;;;;;;5077347;28;20525;-80
2023/01/28 12:45:22;;;;;;;6.35;4.93;;;6.40;79.50;;;;;;5076993;28;20044;-80
2023/01/28 12:47:59;;;;;;;6.50;5.07;;;6.50;79.60;;;;;;5076251;28;20035;-80
2023/01/28 12:50:50;;;;;;;6.18;4.90;;;6.50;79.60;;;;;;5076856;28;20020;-80
2023/01/28 12:53:32;;;;;;;5.90;4.78;;;6.50;79.60;;;;;;5094703;28;20460;-80
2023/01/28 12:56:09;;;;;;;6.57;5.05;;;6.50;79.60;;;;;;5076375;28;20020;-80
2023/01/28 12:58:48;;;;;;;5.60;4.47;;;6.50;79.50;;;;;;5076706;28;20028;-79
2023/01/28 13:01:20;;;;;;;6.22;4.75;;;6.60;79.50;;;;;;5076310;28;20121;-80
2023/01/28 13:03:52;;;;;;;6.57;5.07;;;6.60;79.50;;;;;;5076162;28;20035;-81
2023/01/28 13:06:40;;;;;;;6.70;5.22;;;6.60;79.40;;;;;;5076643;28;20054;-81
2023/01/28 13:09:18;;;;;;;7.10;5.40;;;6.70;79.50;;;;;;5076570;28;20471;-81
2023/01/28 13:11:46;;;;;;;6.43;4.95;;;6.70;79.40;;;;;;5060118;28;20115;-80
2023/01/28 13:14:13;;;;;;;7.10;4.93;;;6.70;79.30;;;;;;5059562;28;20028;-80
2023/01/28 13:16:39;;;;;;;6.75;5.30;;;6.70;79.30;;;;;;5076411;28;20028;-80
2023/01/28 13:19:23;;;;;;;6.85;5.35;;;6.80;79.40;;;;;;5076323;28;20398;-81
2023/01/28 13:21:49;;;;;;;6.80;5.38;;;6.80;79.40;;;;;;5076410;28;20074;-81
2023/01/28 13:24:15;;;;;;;6.63;4.95;;;6.80;79.20;;;;;;5059426;28;20428;-80
2023/01/28 13:26:47;;;;;;;6.82;5.00;;;6.90;79.20;;;;;;5076159;28;20111;-80
2023/01/28 13:29:31;;;;;;;6.35;4.97;;;6.90;79.20;;;;;;5076411;28;20515;-82
2023/01/28 13:32:00;;;;;;;5.67;4.50;;;6.90;79.10;;;;;;5076273;28;20035;-83
2023/01/28 13:34:36;;;;;;;6.38;4.68;;;7.00;79.10;;;;;;5076206;28;20262;-80
2023/01/28 13:37:37;;;;;;;6.47;5.00;;;7.00;79.20;;;;;;5093912;28;20085;-81
2023/01/28 13:40:24;;;;;;;6.25;4.60;;;7.00;79.20;;;;;;5076462;28;20028;-82
2023/01/28 13:42:58;;;;;;;6.18;4.82;;;7.00;79.20;;;;;;5077019;28;20039;-81
2023/01/28 13:45:25;;;;;;;6.88;4.88;;;7.00;79.20;;;;;;5092981;28;20028;-79
2023/01/28 13:48:13;;;;;;;6.53;5.22;;;7.00;79.20;;;;;;5059336;28;20024;-79
2023/01/28 13:50:42;;;;;;;6.45;4.75;;;7.10;79.30;;;;;;5051649;28;20032;-81
2023/01/28 13:53:21;;;;;;;5.82;4.50;;;7.10;79.10;;;;;;5093257;28;20097;-80